createdAt,value
2022-09-27T00:01:09.476Z,99351.38
2022-09-27T00:03:36.105Z,99344.34
2022-09-27T00:06:05.577Z,99340.81
2022-09-27T00:08:32.893Z,99338.16
2022-09-27T00:11:01.336Z,99338.16
2022-09-27T00:13:28.425Z,99338.16
2022-09-27T00:15:59.400Z,99343.44
2022-09-27T00:18:26.259Z,99334.66
2022-09-27T00:20:53.146Z,99332.88
2022-09-27T00:23:19.907Z,99320.59
2022-09-27T00:25:59.385Z,99326.72
2022-09-27T00:28:25.962Z,99325.88
2022-09-27T00:30:53.404Z,99324.19
2022-09-27T00:33:20.257Z,99311.91
2022-09-27T00:35:46.985Z,99318.03
2022-09-27T00:38:13.598Z,99316.25
2022-09-27T00:40:40.247Z,99306.63
2022-09-27T00:43:20.560Z,99303.88
2022-09-27T00:45:57.481Z,99301.31
2022-09-27T00:48:26.234Z,99296.03
2022-09-27T00:50:53.006Z,99299.63
2022-09-27T00:53:27.439Z,99304.81
2022-09-27T00:56:01.664Z,99304.91
2022-09-27T00:58:33.155Z,99302.28
2022-09-27T01:01:01.472Z,99299.63
2022-09-27T01:03:33.541Z,99292.63
2022-09-27T01:06:00.159Z,99289.06
2022-09-27T01:08:26.772Z,99289.06
2022-09-27T01:11:02.907Z,99277.69
2022-09-27T01:13:41.400Z,99287.31
2022-09-27T01:16:17.799Z,99282.03
2022-09-27T01:18:52.707Z,99287.31
2022-09-27T01:21:39.374Z,99286.47
2022-09-27T01:24:27.984Z,99281.19
2022-09-27T01:27:28.519Z,99287.31
2022-09-27T01:30:01.018Z,99277.69
2022-09-27T01:32:55.042Z,99277.69
2022-09-27T01:35:40.344Z,99272.41
2022-09-27T01:38:15.341Z,99273.34
2022-09-27T01:40:54.715Z,99261.06
2022-09-27T01:43:43.162Z,99261.94
2022-09-27T01:46:18.492Z,99258.44
2022-09-27T01:48:47.198Z,99250.50
2022-09-27T01:51:18.244Z,99246.06
2022-09-27T01:53:46.911Z,99238.19
2022-09-27T01:56:15.548Z,99241.72
2022-09-27T01:59:02.851Z,99233.78
2022-09-27T02:01:30.189Z,99227.62
2022-09-27T02:03:58.188Z,99226.78
2022-09-27T02:06:28.095Z,99224.97
2022-09-27T02:09:08.051Z,99218.00
2022-09-27T02:11:34.835Z,99220.62
2022-09-27T02:14:27.011Z,99219.78
2022-09-27T02:17:00.971Z,99221.47
2022-09-27T02:19:35.614Z,99218.94
2022-09-27T02:22:30.521Z,99225.06
2022-09-27T02:25:25.321Z,99218.94
2022-09-27T02:28:26.837Z,99223.37
2022-09-27T02:30:53.568Z,99224.22
2022-09-27T02:33:21.174Z,99228.66
2022-09-27T02:35:48.324Z,99219.88
2022-09-27T02:38:14.866Z,99219.03
2022-09-27T02:40:44.051Z,99212.91
2022-09-27T02:43:10.699Z,99223.47
2022-09-27T02:46:06.263Z,99220.00
2022-09-27T02:49:04.726Z,99221.69
2022-09-27T02:51:49.635Z,99222.63
2022-09-27T02:54:38.084Z,99215.53
2022-09-27T02:57:37.317Z,99207.69
2022-09-27T03:00:18.283Z,99203.25
2022-09-27T03:03:23.516Z,99205.03
2022-09-27T03:06:03.268Z,99204.19
2022-09-27T03:08:29.881Z,99202.41
2022-09-27T03:10:56.443Z,99197.22
2022-09-27T03:13:23.029Z,99198.06
2022-09-27T03:15:49.629Z,99198.06
2022-09-27T03:18:16.253Z,99190.97
2022-09-27T03:20:42.922Z,99199.84
2022-09-27T03:23:09.670Z,99202.50
2022-09-27T03:25:36.234Z,99192.87
2022-09-27T03:28:02.806Z,99191.06
2022-09-27T03:30:29.346Z,99192.87
2022-09-27T03:32:56.100Z,99186.72
2022-09-27T03:35:25.350Z,99189.38
2022-09-27T03:37:52.016Z,99186.72
2022-09-27T03:40:18.696Z,99192.09
2022-09-27T03:42:49.650Z,99188.53
2022-09-27T03:45:16.862Z,99184.16
2022-09-27T03:47:43.422Z,99192.03
2022-09-27T03:50:11.187Z,99181.50
2022-09-27T03:52:37.986Z,99184.09
2022-09-27T03:55:04.931Z,99178.78
2022-09-27T03:57:32.030Z,99169.13
2022-09-27T03:59:59.836Z,99178.78
2022-09-27T04:02:27.415Z,99178.87
2022-09-27T04:04:54.067Z,99181.44
2022-09-27T04:07:20.894Z,99173.50
2022-09-27T04:09:47.467Z,99166.50
2022-09-27T04:12:14.118Z,99179.66
2022-09-27T04:14:40.700Z,99176.16
2022-09-27T04:17:07.649Z,99177.00
2022-09-27T04:19:34.269Z,99180.50
2022-09-27T04:22:01.437Z,99176.06
2022-09-27T04:24:28.001Z,99173.41
2022-09-27T04:26:54.538Z,99173.41
2022-09-27T04:29:21.117Z,99173.41
2022-09-27T04:31:47.807Z,99163.69
2022-09-27T04:34:14.370Z,99155.75
2022-09-27T04:36:40.948Z,99166.31
2022-09-27T04:39:08.484Z,99160.19
2022-09-27T04:41:36.045Z,99154.91
2022-09-27T04:44:02.956Z,99159.34
2022-09-27T04:46:32.288Z,99159.25
2022-09-27T04:48:59.711Z,99161.03
2022-09-27T04:51:27.125Z,99152.25
2022-09-27T04:53:54.128Z,99153.09
2022-09-27T04:56:20.827Z,99155.75
2022-09-27T04:58:47.450Z,99159.25
2022-09-27T05:01:14.124Z,99168.97
2022-09-27T05:03:42.160Z,99149.63
2022-09-27T05:06:08.713Z,99149.63
2022-09-27T05:08:35.259Z,99153.94
2022-09-27T05:11:01.883Z,99151.31
2022-09-27T05:13:28.528Z,99136.41
2022-09-27T05:15:55.140Z,99143.38
2022-09-27T05:18:21.902Z,99142.53
2022-09-27T05:20:48.669Z,99149.63
2022-09-27T05:23:15.477Z,99155.84
2022-09-27T05:25:43.239Z,99150.62
2022-09-27T05:28:09.863Z,99143.75
2022-09-27T05:30:36.718Z,99136.00
2022-09-27T05:33:03.466Z,99131.66
2022-09-27T05:35:30.029Z,99128.25
2022-09-27T05:37:57.964Z,99132.69
2022-09-27T05:40:42.020Z,99126.53
2022-09-27T05:43:09.177Z,99117.87
2022-09-27T05:45:35.723Z,99112.47
2022-09-27T05:48:02.784Z,99121.25
2022-09-27T05:50:29.412Z,99114.28
2022-09-27T05:52:55.963Z,99106.44
2022-09-27T05:55:22.569Z,99106.53
2022-09-27T05:57:57.309Z,99099.53
2022-09-27T06:00:25.894Z,99106.63
2022-09-27T06:02:56.791Z,99111.06
2022-09-27T06:05:23.899Z,99117.28
2022-09-27T06:07:50.842Z,99125.37
2022-09-27T06:10:18.755Z,99121.16
2022-09-27T06:12:45.638Z,99132.75
2022-09-27T06:15:12.720Z,99131.03
2022-09-27T06:17:39.580Z,99124.22
2022-09-27T06:20:07.683Z,99127.81
2022-09-27T06:22:34.356Z,99127.16
2022-09-27T06:25:00.923Z,99126.31
2022-09-27T06:27:27.505Z,99121.97
2022-09-27T06:29:54.091Z,99122.91
2022-09-27T06:32:20.648Z,99122.97
2022-09-27T06:34:49.355Z,99119.50
2022-09-27T06:37:16.017Z,99119.50
2022-09-27T06:39:42.596Z,99119.50
2022-09-27T06:42:11.133Z,99124.78
2022-09-27T06:44:38.972Z,99114.31
2022-09-27T06:47:05.529Z,99113.47
2022-09-27T06:49:32.730Z,99109.97
2022-09-27T06:51:59.735Z,99109.13
2022-09-27T06:54:26.390Z,99113.53
2022-09-27T06:56:52.977Z,99098.56
2022-09-27T06:59:38.055Z,99103.84
2022-09-27T07:02:07.536Z,99108.16
2022-09-27T07:04:34.197Z,99114.31
2022-09-27T07:07:03.169Z,99113.47
2022-09-27T07:09:29.827Z,99122.34
2022-09-27T07:11:56.656Z,99129.38
2022-09-27T07:14:23.346Z,99137.25
2022-09-27T07:16:50.056Z,99135.44
2022-09-27T07:19:18.320Z,99136.28
2022-09-27T07:21:45.407Z,99139.78
2022-09-27T07:24:12.077Z,99130.91
2022-09-27T07:26:40.748Z,99126.47
2022-09-27T07:29:07.613Z,99120.28
2022-09-27T07:31:34.184Z,99120.28
2022-09-27T07:34:03.810Z,99131.69
2022-09-27T07:36:31.177Z,99136.03
2022-09-27T07:39:01.025Z,99139.50
2022-09-27T07:41:27.608Z,99125.34
2022-09-27T07:43:58.026Z,99121.88
2022-09-27T07:46:53.979Z,99122.63
2022-09-27T07:49:20.555Z,99120.84
2022-09-27T07:51:47.140Z,99117.25
2022-09-27T07:54:13.862Z,99108.56
2022-09-27T07:56:40.679Z,99106.84
2022-09-27T07:59:07.252Z,99107.69
2022-09-27T08:01:35.178Z,99112.13
2022-09-27T08:04:01.994Z,99117.44
2022-09-27T08:06:29.699Z,99112.06
2022-09-27T08:08:57.754Z,99110.34
2022-09-27T08:11:24.550Z,99105.00
2022-09-27T08:13:52.651Z,99097.91
2022-09-27T08:16:19.311Z,99082.91
2022-09-27T08:18:45.936Z,99089.03
2022-09-27T08:21:12.752Z,99084.59
2022-09-27T08:23:39.442Z,99090.72
2022-09-27T08:26:06.283Z,99100.28
2022-09-27T08:28:33.344Z,99095.00
2022-09-27T08:31:00.104Z,99105.56
2022-09-27T08:33:31.966Z,99101.22
2022-09-27T08:36:07.173Z,99114.34
2022-09-27T08:38:33.733Z,99109.91
2022-09-27T08:41:29.733Z,99113.41
2022-09-27T08:44:17.504Z,99102.81
2022-09-27T08:47:17.613Z,99098.59
2022-09-27T08:50:06.681Z,99095.94
2022-09-27T08:52:44.004Z,99095.06
2022-09-27T08:55:20.896Z,99090.66
2022-09-27T08:57:50.453Z,99089.78
2022-09-27T09:00:17.469Z,99088.03
2022-09-27T09:02:44.410Z,99088.75
2022-09-27T09:05:15.453Z,99101.13
2022-09-27T09:08:02.616Z,99098.31
2022-09-27T09:10:47.962Z,99097.44
2022-09-27T09:13:32.935Z,99095.75
2022-09-27T09:16:20.999Z,99086.03
2022-09-27T09:19:24.920Z,99084.22
2022-09-27T09:22:04.987Z,99078.03
2022-09-27T09:24:54.517Z,99073.59
2022-09-27T09:27:42.566Z,99061.31
2022-09-27T09:30:26.085Z,99053.28
2022-09-27T09:33:01.830Z,99054.97
2022-09-27T09:35:32.012Z,99048.84
2022-09-27T09:38:00.619Z,99036.47
2022-09-27T09:40:27.134Z,99032.03
2022-09-27T09:43:01.304Z,99033.72
2022-09-27T09:45:30.465Z,99037.22
2022-09-27T09:48:15.428Z,99038.09
2022-09-27T09:50:47.333Z,99041.59
2022-09-27T09:53:19.618Z,99044.22
2022-09-27T09:55:53.436Z,99044.22
2022-09-27T09:58:30.247Z,99039.88
2022-09-27T10:01:00.642Z,99037.22
2022-09-27T10:03:27.616Z,99021.28
2022-09-27T10:05:54.180Z,99035.34
2022-09-27T10:08:22.600Z,99029.22
2022-09-27T10:10:49.303Z,99022.12
2022-09-27T10:13:18.069Z,99022.97
2022-09-27T10:16:02.614Z,99021.28
2022-09-27T10:18:29.733Z,99026.56
2022-09-27T10:20:57.079Z,99021.28
2022-09-27T10:23:25.149Z,99019.50
2022-09-27T10:25:59.306Z,99022.12
2022-09-27T10:28:39.315Z,99010.63
2022-09-27T10:31:19.591Z,99006.16
2022-09-27T10:33:56.284Z,99000.88
2022-09-27T10:36:29.110Z,99005.31
2022-09-27T10:39:00.873Z,99001.72
2022-09-27T10:41:34.200Z,99000.88
2022-09-27T10:44:31.956Z,99009.66
2022-09-27T10:47:07.600Z,98999.94
2022-09-27T10:49:40.925Z,98997.22
2022-09-27T10:52:25.865Z,98999.84
2022-09-27T10:54:57.064Z,98997.22
2022-09-27T10:57:25.076Z,98992.88
2022-09-27T10:59:56.681Z,98992.88
2022-09-27T11:02:29.172Z,98992.78
2022-09-27T11:05:15.987Z,98982.22
2022-09-27T11:07:56.463Z,98987.37
2022-09-27T11:10:28.728Z,98983.78
2022-09-27T11:13:15.118Z,98981.16
2022-09-27T11:15:59.799Z,98976.75
2022-09-27T11:19:04.155Z,98977.59
2022-09-27T11:22:05.149Z,98968.69
2022-09-27T11:24:44.820Z,98960.78
2022-09-27T11:27:26.602Z,98965.00
2022-09-27T11:30:02.228Z,98962.28
2022-09-27T11:32:51.247Z,98952.62
2022-09-27T11:35:32.036Z,98948.22
2022-09-27T11:38:34.530Z,98942.16
2022-09-27T11:41:45.783Z,98944.81
2022-09-27T11:44:29.708Z,98939.53
2022-09-27T11:47:03.134Z,98935.06
2022-09-27T11:50:06.390Z,98929.78
2022-09-27T11:52:58.415Z,98925.44
2022-09-27T11:55:37.289Z,98921.84
2022-09-27T11:58:24.285Z,98925.44
2022-09-27T12:01:17.572Z,98920.91
2022-09-27T12:04:12.662Z,98912.97
2022-09-27T12:06:51.464Z,98900.72
2022-09-27T12:09:20.691Z,98901.56
2022-09-27T12:11:50.736Z,98903.28
2022-09-27T12:14:37.184Z,98899.75
2022-09-27T12:17:05.441Z,98892.69
2022-09-27T12:19:37.581Z,98886.53
2022-09-27T12:22:05.517Z,98880.41
2022-09-27T12:24:32.223Z,98883.91
2022-09-27T12:27:02.021Z,98879.56
2022-09-27T12:29:34.030Z,98886.53
2022-09-27T12:32:26.669Z,98882.13
2022-09-27T12:35:00.728Z,98873.31
2022-09-27T12:37:46.483Z,98868.91
2022-09-27T12:40:16.709Z,98867.13
2022-09-27T12:43:14.627Z,98865.31
2022-09-27T12:45:56.887Z,98861.81
2022-09-27T12:48:29.508Z,98862.66
2022-09-27T12:51:03.060Z,98865.31
2022-09-27T12:53:45.108Z,98862.66
2022-09-27T12:56:36.600Z,98868.81
2022-09-27T12:59:28.547Z,98861.81
2022-09-27T13:02:21.079Z,98862.66
2022-09-27T13:05:22.950Z,98858.22
2022-09-27T13:08:06.410Z,98847.75
2022-09-27T13:10:42.704Z,98848.59
2022-09-27T13:13:11.963Z,98850.41
2022-09-27T13:15:39.931Z,98845.97
2022-09-27T13:18:07.572Z,98841.53
2022-09-27T13:20:37.204Z,98830.94
2022-09-27T13:23:07.571Z,98837.19
2022-09-27T13:25:54.296Z,98835.37
2022-09-27T13:28:33.742Z,98829.16
2022-09-27T13:31:14.043Z,98833.59
2022-09-27T13:33:49.789Z,98836.22
2022-09-27T13:36:16.265Z,98829.16
2022-09-27T13:39:05.883Z,98828.31
2022-09-27T13:41:39.111Z,98822.06
2022-09-27T13:44:14.791Z,98822.91
2022-09-27T13:46:54.094Z,98822.06
2022-09-27T13:49:39.264Z,98816.78
2022-09-27T13:52:14.965Z,98811.50
2022-09-27T13:54:51.618Z,98807.16
2022-09-27T13:57:46.721Z,98797.44
2022-09-27T14:00:21.320Z,98805.34
2022-09-27T14:03:00.908Z,98810.53
2022-09-27T14:05:41.324Z,98814.13
2022-09-27T14:08:12.708Z,98807.88
2022-09-27T14:10:39.780Z,98796.47
2022-09-27T14:13:06.446Z,98797.31
2022-09-27T14:15:33.028Z,98822.91
2022-09-27T14:17:59.884Z,98847.53
2022-09-27T14:20:41.709Z,98855.59
2022-09-27T14:23:24.770Z,98871.44
2022-09-27T14:25:52.897Z,98875.78
2022-09-27T14:28:22.994Z,98868.81
2022-09-27T14:31:04.150Z,98880.22
2022-09-27T14:33:32.228Z,98865.19
2022-09-27T14:36:21.699Z,98879.25
2022-09-27T14:38:50.411Z,98873.97
2022-09-27T14:41:17.296Z,98884.47
2022-09-27T14:43:44.934Z,98875.59
2022-09-27T14:46:25.568Z,98877.28
2022-09-27T14:48:53.173Z,98888.72
2022-09-27T14:51:21.801Z,98890.50
2022-09-27T14:53:50.382Z,98888.72
2022-09-27T14:56:22.687Z,98896.53
2022-09-27T14:59:09.088Z,98896.53
2022-09-27T15:01:35.925Z,98895.69
2022-09-27T15:04:07.218Z,98895.69
2022-09-27T15:06:36.065Z,98900.97
2022-09-27T15:09:03.437Z,98902.69
2022-09-27T15:11:33.104Z,98897.41
2022-09-27T15:14:01.844Z,98898.25
2022-09-27T15:16:28.709Z,98903.53
2022-09-27T15:19:03.705Z,98900.91
2022-09-27T15:21:37.127Z,98904.37
2022-09-27T15:24:03.914Z,98906.19
2022-09-27T15:26:39.819Z,98912.31
2022-09-27T15:29:06.538Z,98901.75
2022-09-27T15:31:36.565Z,98907.88
2022-09-27T15:34:05.424Z,98910.53
2022-09-27T15:36:52.849Z,98910.53
2022-09-27T15:39:38.828Z,98921.94
2022-09-27T15:42:05.788Z,98925.53
2022-09-27T15:44:46.687Z,98927.22
2022-09-27T15:47:43.906Z,98936.00
2022-09-27T15:50:16.575Z,98938.66
2022-09-27T15:52:52.859Z,98939.59
2022-09-27T15:55:21.231Z,98937.81
2022-09-27T15:57:50.658Z,98950.06
2022-09-27T16:00:18.096Z,98937.81
2022-09-27T16:02:45.261Z,98949.22
2022-09-27T16:05:14.502Z,98955.47
2022-09-27T16:07:41.149Z,98959.81
2022-09-27T16:10:17.983Z,98964.25
2022-09-27T16:12:47.296Z,98959.91
2022-09-27T16:15:14.343Z,98957.16
2022-09-27T16:17:42.701Z,98954.50
2022-09-27T16:20:23.167Z,98970.38
2022-09-27T16:22:50.461Z,98973.88
2022-09-27T16:25:17.202Z,98970.38
2022-09-27T16:27:43.791Z,98972.06
2022-09-27T16:30:10.848Z,98974.72
2022-09-27T16:32:41.775Z,98973.03
2022-09-27T16:35:09.283Z,98971.22
2022-09-27T16:37:35.923Z,98973.03
2022-09-27T16:40:04.068Z,98974.81
2022-09-27T16:42:32.780Z,98973.88
2022-09-27T16:44:59.391Z,98970.38
2022-09-27T16:47:26.367Z,98971.22
2022-09-27T16:50:11.575Z,98976.50
2022-09-27T16:52:38.539Z,98983.59
2022-09-27T16:55:07.294Z,98987.09
2022-09-27T16:57:34.565Z,98982.66
2022-09-27T17:00:01.340Z,98988.88
2022-09-27T17:02:28.431Z,98995.03
2022-09-27T17:04:55.339Z,98997.66
2022-09-27T17:07:21.985Z,99000.31
2022-09-27T17:09:51.095Z,99002.09
2022-09-27T17:12:17.664Z,99001.25
2022-09-27T17:14:44.276Z,99005.59
2022-09-27T17:17:12.934Z,99013.53
2022-09-27T17:19:39.516Z,99010.03
2022-09-27T17:22:09.132Z,99011.84
2022-09-27T17:24:36.615Z,99010.03
2022-09-27T17:27:03.510Z,99012.69
2022-09-27T17:29:31.012Z,99017.97
2022-09-27T17:31:57.659Z,99018.81
2022-09-27T17:34:24.292Z,99032.03
2022-09-27T17:36:51.791Z,99039.97
2022-09-27T17:39:21.251Z,99039.13
2022-09-27T17:41:50.870Z,99037.44
2022-09-27T17:44:20.675Z,99030.34
2022-09-27T17:46:47.353Z,99026.84
2022-09-27T17:49:32.501Z,99029.50
2022-09-27T17:51:59.088Z,99030.47
2022-09-27T17:54:27.787Z,99025.16
2022-09-27T17:56:56.186Z,99028.66
2022-09-27T17:59:23.062Z,99031.31
2022-09-27T18:01:49.723Z,99039.22
2022-09-27T18:04:17.923Z,99044.53
2022-09-27T18:06:47.555Z,99043.69
2022-09-27T18:09:15.572Z,99041.94
2022-09-27T18:11:42.775Z,99041.03
2022-09-27T18:14:10.694Z,99042.81
2022-09-27T18:16:39.595Z,99034.91
2022-09-27T18:19:07.174Z,99045.47
2022-09-27T18:21:33.993Z,99050.75
2022-09-27T18:24:00.776Z,99061.34
2022-09-27T18:26:29.061Z,99076.31
2022-09-27T18:28:59.575Z,99084.25
2022-09-27T18:31:26.229Z,99092.19
2022-09-27T18:33:52.878Z,99088.69
2022-09-27T18:36:21.365Z,99084.25
2022-09-27T18:38:55.497Z,99093.13
2022-09-27T18:41:22.812Z,99090.50
2022-09-27T18:43:57.005Z,99094.94
2022-09-27T18:46:40.207Z,99096.63
2022-09-27T18:49:09.974Z,99093.97
2022-09-27T18:51:37.867Z,99082.56
2022-09-27T18:54:09.841Z,99076.44
2022-09-27T18:56:39.400Z,99095.78
2022-09-27T18:59:09.574Z,99104.56
2022-09-27T19:01:45.155Z,99100.22
2022-09-27T19:04:13.838Z,99107.31
2022-09-27T19:06:40.577Z,99109.94
2022-09-27T19:09:07.359Z,99119.56
2022-09-27T19:11:34.247Z,99114.41
2022-09-27T19:14:00.900Z,99123.19
2022-09-27T19:16:27.869Z,99128.47
2022-09-27T19:18:54.563Z,99115.25
2022-09-27T19:21:23.028Z,99123.19
2022-09-27T19:23:49.965Z,99124.97
2022-09-27T19:26:22.004Z,99135.53
2022-09-27T19:28:48.722Z,99133.75
2022-09-27T19:31:16.889Z,99132.06
2022-09-27T19:33:43.738Z,99135.53
2022-09-27T19:36:13.296Z,99142.63
2022-09-27T19:38:39.892Z,99141.69
2022-09-27T19:41:08.671Z,99136.41
2022-09-27T19:43:35.246Z,99123.28
2022-09-27T19:46:09.366Z,99124.13
2022-09-27T19:48:38.141Z,99124.13
2022-09-27T19:51:05.506Z,99127.62
2022-09-27T19:53:32.438Z,99123.28
2022-09-27T19:56:04.089Z,99128.56
2022-09-27T19:58:31.233Z,99122.44
2022-09-27T20:01:02.427Z,99123.28
2022-09-27T20:03:29.371Z,99130.34
2022-09-27T20:05:56.268Z,99125.91
2022-09-27T20:08:23.035Z,99137.41
2022-09-27T20:10:57.157Z,99145.28
2022-09-27T20:13:24.278Z,99136.56
2022-09-27T20:15:53.080Z,99147.13
2022-09-27T20:18:19.735Z,99148.00
2022-09-27T20:20:46.648Z,99154.22
2022-09-27T20:23:13.200Z,99146.28
2022-09-27T20:25:42.900Z,99163.00
2022-09-27T20:28:09.794Z,99168.28
2022-09-27T20:30:36.338Z,99166.59
2022-09-27T20:33:21.360Z,99163.94
2022-09-27T20:35:51.881Z,99165.75
2022-09-27T20:38:18.671Z,99162.25
2022-09-27T20:40:55.249Z,99157.91
2022-09-27T20:43:22.192Z,99152.63
2022-09-27T20:45:49.092Z,99152.63
2022-09-27T20:48:15.789Z,99152.63
2022-09-27T20:50:42.344Z,99153.47
2022-09-27T20:53:08.928Z,99161.47
2022-09-27T20:55:35.945Z,99161.47
2022-09-27T20:58:02.667Z,99164.13
2022-09-27T21:00:29.301Z,99148.25
2022-09-27T21:02:55.965Z,99150.06
2022-09-27T21:05:22.583Z,99149.22
2022-09-27T21:07:53.030Z,99143.94
2022-09-27T21:10:19.611Z,99145.72
2022-09-27T21:12:46.325Z,99151.00
2022-09-27T21:15:12.882Z,99158.94
2022-09-27T21:17:39.481Z,99167.72
2022-09-27T21:20:06.326Z,99171.31
2022-09-27T21:22:32.916Z,99168.75
2022-09-27T21:24:59.477Z,99159.88
2022-09-27T21:27:26.022Z,99160.72
2022-09-27T21:29:54.887Z,99160.72
2022-09-27T21:32:21.480Z,99153.75
2022-09-27T21:34:48.063Z,99144.03
2022-09-27T21:37:14.626Z,99147.63
2022-09-27T21:39:41.208Z,99145.81
2022-09-27T21:42:07.862Z,99150.25
2022-09-27T21:44:34.466Z,99138.00
2022-09-27T21:47:04.183Z,99149.41
2022-09-27T21:49:32.048Z,99160.84
2022-09-27T21:52:00.699Z,99165.28
2022-09-27T21:54:27.372Z,99155.63
2022-09-27T21:56:54.007Z,99157.41
2022-09-27T21:59:20.536Z,99165.44
2022-09-27T22:01:47.484Z,99172.44
2022-09-27T22:04:14.513Z,99168.09
2022-09-27T22:06:41.149Z,99165.44
2022-09-27T22:09:11.126Z,99168.09
2022-09-27T22:11:39.197Z,99163.75
2022-09-27T22:14:11.842Z,99173.38
2022-09-27T22:16:38.542Z,99185.75
2022-09-27T22:19:05.200Z,99183.19
2022-09-27T22:21:36.011Z,99179.63
2022-09-27T22:24:07.743Z,99179.69
2022-09-27T22:26:36.209Z,99177.03
2022-09-27T22:29:02.870Z,99183.28
2022-09-27T22:31:29.495Z,99184.97
2022-09-27T22:33:58.023Z,99176.19
2022-09-27T22:36:24.705Z,99177.97
2022-09-27T22:38:51.551Z,99186.75
2022-09-27T22:41:18.527Z,99184.22
2022-09-27T22:43:45.103Z,99190.34
2022-09-27T22:46:13.034Z,99186.00
2022-09-27T22:48:39.742Z,99193.94
2022-09-27T22:51:07.801Z,99197.53
2022-09-27T22:53:34.495Z,99187.81
2022-09-27T22:56:08.794Z,99194.88
2022-09-27T22:58:35.660Z,99202.81
2022-09-27T23:01:14.472Z,99210.75
2022-09-27T23:03:41.468Z,99206.38
2022-09-27T23:06:08.226Z,99216.09
2022-09-27T23:08:37.539Z,99216.09
2022-09-27T23:11:08.748Z,99220.53
2022-09-27T23:13:37.701Z,99214.41
2022-09-27T23:16:05.579Z,99210.91
2022-09-27T23:18:33.245Z,99206.56
2022-09-27T23:21:10.639Z,99218.00
2022-09-27T23:23:40.636Z,99220.75
2022-09-27T23:26:08.362Z,99216.31
2022-09-27T23:28:35.220Z,99207.53
2022-09-27T23:31:13.730Z,99209.31
2022-09-27T23:33:42.623Z,99209.31
2022-09-27T23:36:10.540Z,99207.59
2022-09-27T23:38:40.193Z,99219.00
2022-09-27T23:41:07.520Z,99212.88
2022-09-27T23:43:35.324Z,99211.19
2022-09-27T23:46:04.679Z,99205.03
2022-09-27T23:48:31.246Z,99194.47
2022-09-27T23:50:57.878Z,99198.91
2022-09-27T23:53:24.502Z,99206.84
2022-09-27T23:56:14.412Z,99206.84
2022-09-27T23:58:42.259Z,99216.56
